sensor_id;sensor_type;location;lat;lon;timestamp;pressure;altitude;pressure_sealevel;temperature;humidity
49611;BME280;35515;48.766;9.176;2023-07-29T00:00:52;97914.84;;;17.92;100.00
49611;BME280;35515;48.766;9.176;2023-07-29T00:03:18;97915.09;;;17.91;100.00
49611;BME280;35515;48.766;9.176;2023-07-29T00:05:45;97909.97;;;17.99;100.00
49611;BME280;35515;48.766;9.176;2023-07-29T00:08:11;97902.59;;;18.05;100.00
49611;BME280;35515;48.766;9.176;2023-07-29T00:10:38;97903.63;;;17.94;100.00
49611;BME280;35515;48.766;9.176;2023-07-29T00:13:05;97905.84;;;17.97;100.00
49611;BME280;35515;48.766;9.176;2023-07-29T00:15:33;97899.75;;;17.89;100.00
49611;BME280;35515;48.766;9.176;2023-07-29T00:17:59;97897.81;;;17.85;100.00
49611;BME280;35515;48.766;9.176;2023-07-29T00:20:26;97893.78;;;17.98;100.00
49611;BME280;35515;48.766;9.176;2023-07-29T00:22:53;97888.28;;;17.98;100.00
49611;BME280;35515;48.766;9.176;2023-07-29T00:25:20;97896.00;;;18.01;100.00
49611;BME280;35515;48.766;9.176;2023-07-29T00:27:47;97900.38;;;18.07;100.00
49611;BME280;35515;48.766;9.176;2023-07-29T00:30:13;97902.03;;;18.08;100.00
49611;BME280;35515;48.766;9.176;2023-07-29T00:32:41;97895.44;;;18.04;100.00
49611;BME280;35515;48.766;9.176;2023-07-29T00:35:08;97901.47;;;18.01;100.00
49611;BME280;35515;48.766;9.176;2023-07-29T00:37:35;97900.59;;;17.95;100.00
49611;BME280;35515;48.766;9.176;2023-07-29T00:40:03;97895.91;;;17.91;100.00
49611;BME280;35515;48.766;9.176;2023-07-29T00:42:30;97888.28;;;17.93;100.00
49611;BME280;35515;48.766;9.176;2023-07-29T00:44:56;97890.50;;;17.96;100.00
49611;BME280;35515;48.766;9.176;2023-07-29T00:47:24;97885.28;;;17.94;100.00
49611;BME280;35515;48.766;9.176;2023-07-29T00:49:53;97884.16;;;17.90;100.00
49611;BME280;35515;48.766;9.176;2023-07-29T00:52:19;97882.22;;;17.91;100.00
49611;BME280;35515;48.766;9.176;2023-07-29T00:54:46;97892.69;;;17.99;100.00
49611;BME280;35515;48.766;9.176;2023-07-29T00:57:13;97885.81;;;17.96;100.00
49611;BME280;35515;48.766;9.176;2023-07-29T00:59:40;97882.81;;;17.93;100.00
49611;BME280;35515;48.766;9.176;2023-07-29T01:02:07;97889.34;;;17.92;100.00
49611;BME280;35515;48.766;9.176;2023-07-29T01:04:34;97885.03;;;18.01;100.00
49611;BME280;35515;48.766;9.176;2023-07-29T01:07:07;97879.81;;;17.99;100.00
49611;BME280;35515;48.766;9.176;2023-07-29T01:09:43;97868.28;;;17.97;100.00
49611;BME280;35515;48.766;9.176;2023-07-29T01:12:20;97864.44;;;17.93;100.00
49611;BME280;35515;48.766;9.176;2023-07-29T01:14:55;97865.78;;;17.91;100.00
49611;BME280;35515;48.766;9.176;2023-07-29T01:17:29;97863.03;;;17.91;100.00
49611;BME280;35515;48.766;9.176;2023-07-29T01:20:01;97874.34;;;17.99;100.00
49611;BME280;35515;48.766;9.176;2023-07-29T01:22:32;97877.09;;;17.99;100.00
49611;BME280;35515;48.766;9.176;2023-07-29T01:25:01;97867.72;;;17.95;100.00
49611;BME280;35515;48.766;9.176;2023-07-29T01:27:27;97870.22;;;17.97;100.00
49611;BME280;35515;48.766;9.176;2023-07-29T01:29:55;97868.00;;;17.94;100.00
49611;BME280;35515;48.766;9.176;2023-07-29T01:32:29;97871.59;;;17.94;100.00
49611;BME280;35515;48.766;9.176;2023-07-29T01:35:03;97865.28;;;17.99;100.00
49611;BME280;35515;48.766;9.176;2023-07-29T01:37:34;97872.72;;;18.03;100.00
49611;BME280;35515;48.766;9.176;2023-07-29T01:40:04;97866.66;;;18.01;100.00
49611;BME280;35515;48.766;9.176;2023-07-29T01:42:31;97865.31;;;18.04;100.00
49611;BME280;35515;48.766;9.176;2023-07-29T01:44:58;97865.31;;;18.04;100.00
49611;BME280;35515;48.766;9.176;2023-07-29T01:47:24;97866.38;;;18.03;100.00
49611;BME280;35515;48.766;9.176;2023-07-29T01:49:51;97858.16;;;17.98;100.00
49611;BME280;35515;48.766;9.176;2023-07-29T01:52:17;97866.94;;;18.00;100.00
49611;BME280;35515;48.766;9.176;2023-07-29T01:54:44;97853.22;;;18.00;100.00
49611;BME280;35515;48.766;9.176;2023-07-29T01:57:12;97857.91;;;17.99;100.00
49611;BME280;35515;48.766;9.176;2023-07-29T01:59:38;97852.16;;;18.01;100.00
49611;BME280;35515;48.766;9.176;2023-07-29T02:02:05;97846.13;;;18.04;100.00
49611;BME280;35515;48.766;9.176;2023-07-29T02:04:32;97842.28;;;18.05;100.00
49611;BME280;35515;48.766;9.176;2023-07-29T02:06:59;97840.63;;;18.04;100.00
49611;BME280;35515;48.766;9.176;2023-07-29T02:09:25;97845.03;;;18.05;100.00
49611;BME280;35515;48.766;9.176;2023-07-29T02:11:52;97838.44;;;18.01;100.00
49611;BME280;35515;48.766;9.176;2023-07-29T02:14:20;97827.75;;;18.04;100.00
49611;BME280;35515;48.766;9.176;2023-07-29T02:16:47;97833.50;;;18.03;100.00
49611;BME280;35515;48.766;9.176;2023-07-29T02:19:14;97834.06;;;18.05;100.00
49611;BME280;35515;48.766;9.176;2023-07-29T02:21:41;97829.69;;;18.04;100.00
49611;BME280;35515;48.766;9.176;2023-07-29T02:24:07;97831.84;;;18.02;100.00
49611;BME280;35515;48.766;9.176;2023-07-29T02:26:34;97826.31;;;17.92;100.00
49611;BME280;35515;48.766;9.176;2023-07-29T02:29:00;97825.47;;;17.86;100.00
49611;BME280;35515;48.766;9.176;2023-07-29T02:31:28;97829.59;;;17.83;100.00
49611;BME280;35515;48.766;9.176;2023-07-29T02:33:54;97824.66;;;17.85;100.00
49611;BME280;35515;48.766;9.176;2023-07-29T02:36:21;97837.25;;;17.81;100.00
49611;BME280;35515;48.766;9.176;2023-07-29T02:38:48;97835.31;;;17.82;100.00
49611;BME280;35515;48.766;9.176;2023-07-29T02:41:14;97824.91;;;17.79;100.00
49611;BME280;35515;48.766;9.176;2023-07-29T02:43:41;97817.50;;;17.79;100.00
49611;BME280;35515;48.766;9.176;2023-07-29T02:46:08;97816.16;;;17.77;100.00
49611;BME280;35515;48.766;9.176;2023-07-29T02:48:36;97816.38;;;17.75;100.00
49611;BME280;35515;48.766;9.176;2023-07-29T02:51:03;97817.22;;;17.76;100.00
49611;BME280;35515;48.766;9.176;2023-07-29T02:53:29;97819.13;;;17.75;100.00
49611;BME280;35515;48.766;9.176;2023-07-29T02:55:56;97819.41;;;17.74;100.00
49611;BME280;35515;48.766;9.176;2023-07-29T02:58:22;97813.66;;;17.80;100.00
49611;BME280;35515;48.766;9.176;2023-07-29T03:00:51;97823.56;;;17.86;100.00
49611;BME280;35515;48.766;9.176;2023-07-29T03:03:18;97812.56;;;17.76;100.00
49611;BME280;35515;48.766;9.176;2023-07-29T03:05:46;97813.97;;;17.84;100.00
49611;BME280;35515;48.766;9.176;2023-07-29T03:08:13;97812.59;;;17.86;100.00
49611;BME280;35515;48.766;9.176;2023-07-29T03:10:39;97809.88;;;17.92;100.00
49611;BME280;35515;48.766;9.176;2023-07-29T03:13:07;97805.50;;;17.91;100.00
49611;BME280;35515;48.766;9.176;2023-07-29T03:15:33;97802.75;;;17.91;100.00
49611;BME280;35515;48.766;9.176;2023-07-29T03:18:00;97792.38;;;17.93;100.00
49611;BME280;35515;48.766;9.176;2023-07-29T03:20:26;97804.97;;;17.94;100.00
49611;BME280;35515;48.766;9.176;2023-07-29T03:22:54;97797.59;;;17.94;100.00
49611;BME280;35515;48.766;9.176;2023-07-29T03:25:21;97792.38;;;17.93;100.00
49611;BME280;35515;48.766;9.176;2023-07-29T03:27:48;97784.66;;;17.89;100.00
49611;BME280;35515;48.766;9.176;2023-07-29T03:30:15;97781.66;;;17.91;100.00
49611;BME280;35515;48.766;9.176;2023-07-29T03:32:43;97791.28;;;17.94;100.00
49611;BME280;35515;48.766;9.176;2023-07-29T03:35:10;97791.84;;;17.96;100.00
49611;BME280;35515;48.766;9.176;2023-07-29T03:37:37;97790.75;;;17.97;100.00
49611;BME280;35515;48.766;9.176;2023-07-29T03:40:06;97787.75;;;17.98;100.00
49611;BME280;35515;48.766;9.176;2023-07-29T03:42:32;97781.97;;;17.95;100.00
49611;BME280;35515;48.766;9.176;2023-07-29T03:44:59;97787.44;;;17.95;100.00
49611;BME280;35515;48.766;9.176;2023-07-29T03:47:26;97784.72;;;17.95;100.00
49611;BME280;35515;48.766;9.176;2023-07-29T03:49:52;97792.38;;;17.98;100.00
49611;BME280;35515;48.766;9.176;2023-07-29T03:52:19;97792.38;;;17.98;100.00
49611;BME280;35515;48.766;9.176;2023-07-29T03:54:46;97786.91;;;17.98;100.00
49611;BME280;35515;48.766;9.176;2023-07-29T03:57:14;97802.50;;;17.92;100.00
49611;BME280;35515;48.766;9.176;2023-07-29T03:59:40;97802.81;;;17.96;100.00
49611;BME280;35515;48.766;9.176;2023-07-29T04:02:07;97792.38;;;17.93;100.00
49611;BME280;35515;48.766;9.176;2023-07-29T04:04:33;97805.53;;;17.96;100.00
49611;BME280;35515;48.766;9.176;2023-07-29T04:07:00;97802.53;;;17.97;100.00
49611;BME280;35515;48.766;9.176;2023-07-29T04:09:26;97809.09;;;17.96;100.00
49611;BME280;35515;48.766;9.176;2023-07-29T04:11:53;97804.19;;;17.98;100.00
49611;BME280;35515;48.766;9.176;2023-07-29T04:14:21;97786.34;;;17.96;100.00
49611;BME280;35515;48.766;9.176;2023-07-29T04:16:48;97780.84;;;17.91;100.00
49611;BME280;35515;48.766;9.176;2023-07-29T04:19:15;97788.00;;;17.97;100.00
49611;BME280;35515;48.766;9.176;2023-07-29T04:21:41;97793.47;;;18.02;100.00
49611;BME280;35515;48.766;9.176;2023-07-29T04:24:08;97793.47;;;18.02;100.00
49611;BME280;35515;48.766;9.176;2023-07-29T04:26:34;97793.47;;;18.02;100.00
49611;BME280;35515;48.766;9.176;2023-07-29T04:29:00;97806.66;;;18.05;100.00
49611;BME280;35515;48.766;9.176;2023-07-29T04:31:28;97796.78;;;18.04;100.00
49611;BME280;35515;48.766;9.176;2023-07-29T04:33:55;97796.53;;;18.11;100.00
49611;BME280;35515;48.766;9.176;2023-07-29T04:36:21;97794.63;;;18.06;100.00
49611;BME280;35515;48.766;9.176;2023-07-29T04:38:48;97798.97;;;18.07;100.00
49611;BME280;35515;48.766;9.176;2023-07-29T04:41:17;97798.97;;;18.07;100.00
49611;BME280;35515;48.766;9.176;2023-07-29T04:43:43;97816.53;;;18.06;100.00
49611;BME280;35515;48.766;9.176;2023-07-29T04:46:10;97820.63;;;18.03;100.00
49611;BME280;35515;48.766;9.176;2023-07-29T04:48:38;97822.00;;;18.01;100.00
49611;BME280;35515;48.766;9.176;2023-07-29T04:51:04;97832.69;;;18.02;100.00
49611;BME280;35515;48.766;9.176;2023-07-29T04:53:31;97835.69;;;17.96;100.00
49611;BME280;35515;48.766;9.176;2023-07-29T04:55:58;97832.09;;;17.90;100.00
49611;BME280;35515;48.766;9.176;2023-07-29T04:58:24;97843.63;;;17.92;100.00
49611;BME280;35515;48.766;9.176;2023-07-29T05:00:54;97837.53;;;17.85;100.00
49611;BME280;35515;48.766;9.176;2023-07-29T05:03:20;97822.47;;;17.82;100.00
49611;BME280;35515;48.766;9.176;2023-07-29T05:05:48;97831.50;;;17.88;100.00
49611;BME280;35515;48.766;9.176;2023-07-29T05:08:16;97828.00;;;17.93;100.00
49611;BME280;35515;48.766;9.176;2023-07-29T05:10:43;97821.97;;;17.96;100.00
49611;BME280;35515;48.766;9.176;2023-07-29T05:13:10;97811.06;;;18.06;100.00
49611;BME280;35515;48.766;9.176;2023-07-29T05:15:36;97794.63;;;18.06;100.00
49611;BME280;35515;48.766;9.176;2023-07-29T05:18:03;97801.19;;;18.10;100.00
49611;BME280;35515;48.766;9.176;2023-07-29T05:20:29;97793.78;;;18.05;100.00
49611;BME280;35515;48.766;9.176;2023-07-29T05:22:57;97782.84;;;18.21;100.00
49611;BME280;35515;48.766;9.176;2023-07-29T05:25:24;97790.50;;;18.14;100.00
49611;BME280;35515;48.766;9.176;2023-07-29T05:27:50;97784.22;;;18.24;100.00
49611;BME280;35515;48.766;9.176;2023-07-29T05:30:17;97800.09;;;18.16;100.00
49611;BME280;35515;48.766;9.176;2023-07-29T05:32:43;97812.44;;;18.24;100.00
49611;BME280;35515;48.766;9.176;2023-07-29T05:35:10;97802.84;;;18.27;100.00
49611;BME280;35515;48.766;9.176;2023-07-29T05:37:38;97803.09;;;18.15;100.00
49611;BME280;35515;48.766;9.176;2023-07-29T05:40:07;97800.66;;;18.18;100.00
49611;BME280;35515;48.766;9.176;2023-07-29T05:42:34;97807.22;;;18.17;100.00
49611;BME280;35515;48.766;9.176;2023-07-29T05:45:01;97796.81;;;18.25;100.00
49611;BME280;35515;48.766;9.176;2023-07-29T05:47:27;97800.09;;;18.16;100.00
49611;BME280;35515;48.766;9.176;2023-07-29T05:49:54;97800.66;;;18.18;100.00
49611;BME280;35515;48.766;9.176;2023-07-29T05:52:20;97793.25;;;18.24;100.00
49611;BME280;35515;48.766;9.176;2023-07-29T05:54:47;97799.00;;;18.17;100.00
49611;BME280;35515;48.766;9.176;2023-07-29T05:57:15;97790.22;;;18.20;100.00
49611;BME280;35515;48.766;9.176;2023-07-29T05:59:41;97782.84;;;18.21;100.00
49611;BME280;35515;48.766;9.176;2023-07-29T06:02:08;97785.59;;;18.21;100.00
49611;BME280;35515;48.766;9.176;2023-07-29T06:04:34;97782.56;;;18.28;100.00
49611;BME280;35515;48.766;9.176;2023-07-29T06:07:01;97776.81;;;18.34;100.00
49611;BME280;35515;48.766;9.176;2023-07-29T06:09:28;97783.69;;;18.37;100.00
49611;BME280;35515;48.766;9.176;2023-07-29T06:11:54;97780.94;;;18.37;100.00
49611;BME280;35515;48.766;9.176;2023-07-29T06:14:22;97784.75;;;18.36;100.00
49611;BME280;35515;48.766;9.176;2023-07-29T06:16:49;97784.78;;;18.41;100.00
49611;BME280;35515;48.766;9.176;2023-07-29T06:19:15;97786.69;;;18.46;100.00
49611;BME280;35515;48.766;9.176;2023-07-29T06:21:42;97785.88;;;18.55;100.00
49611;BME280;35515;48.766;9.176;2023-07-29T06:24:08;97792.97;;;18.57;100.00
49611;BME280;35515;48.766;9.176;2023-07-29T06:26:35;97780.94;;;18.68;100.00
49611;BME280;35515;48.766;9.176;2023-07-29T06:29:01;97788.88;;;18.64;100.00
49611;BME280;35515;48.766;9.176;2023-07-29T06:31:29;97803.16;;;18.66;100.00
49611;BME280;35515;48.766;9.176;2023-07-29T06:33:57;97800.13;;;18.68;100.00
49611;BME280;35515;48.766;9.176;2023-07-29T06:36:24;97802.59;;;18.69;100.00
49611;BME280;35515;48.766;9.176;2023-07-29T06:38:50;97797.38;;;18.68;100.00
49611;BME280;35515;48.766;9.176;2023-07-29T06:41:17;97804.25;;;18.70;100.00
49611;BME280;35515;48.766;9.176;2023-07-29T06:43:43;97814.13;;;18.77;100.00
49611;BME280;35515;48.766;9.176;2023-07-29T06:46:10;97817.97;;;18.76;100.00
49611;BME280;35515;48.766;9.176;2023-07-29T06:48:38;97811.63;;;18.80;100.00
49611;BME280;35515;48.766;9.176;2023-07-29T06:51:04;97801.75;;;18.79;100.00
49611;BME280;35515;48.766;9.176;2023-07-29T06:53:31;97812.72;;;18.84;100.00
49611;BME280;35515;48.766;9.176;2023-07-29T06:55:58;97817.13;;;18.85;100.00
49611;BME280;35515;48.766;9.176;2023-07-29T06:58:25;97824.25;;;18.86;100.00
49611;BME280;35515;48.766;9.176;2023-07-29T07:00:51;97824.81;;;18.83;100.00
49611;BME280;35515;48.766;9.176;2023-07-29T07:03:18;97834.44;;;18.86;100.00
49611;BME280;35515;48.766;9.176;2023-07-29T07:05:46;97837.44;;;18.95;100.00
49611;BME280;35515;48.766;9.176;2023-07-29T07:08:12;97841.56;;;18.97;100.00
49611;BME280;35515;48.766;9.176;2023-07-29T07:10:39;97847.06;;;18.97;100.00
49611;BME280;35515;48.766;9.176;2023-07-29T07:13:05;97847.88;;;19.03;100.00
49611;BME280;35515;48.766;9.176;2023-07-29T07:15:32;97847.34;;;19.06;100.00
49611;BME280;35515;48.766;9.176;2023-07-29T07:17:58;97852.28;;;18.94;100.00
49611;BME280;35515;48.766;9.176;2023-07-29T07:20:25;97849.53;;;18.88;100.00
49611;BME280;35515;48.766;9.176;2023-07-29T07:22:53;97847.88;;;19.13;100.00
49611;BME280;35515;48.766;9.176;2023-07-29T07:25:19;97846.78;;;18.94;100.00
49611;BME280;35515;48.766;9.176;2023-07-29T07:27:46;97838.78;;;18.82;100.00
49611;BME280;35515;48.766;9.176;2023-07-29T07:30:12;97840.72;;;18.86;100.00
49611;BME280;35515;48.766;9.176;2023-07-29T07:32:39;97850.38;;;18.94;100.00
49611;BME280;35515;48.766;9.176;2023-07-29T07:35:05;97855.84;;;18.99;100.00
49611;BME280;35515;48.766;9.176;2023-07-29T07:37:32;97843.75;;;18.95;100.00
49611;BME280;35515;48.766;9.176;2023-07-29T07:40:00;97847.88;;;18.87;100.00
49611;BME280;35515;48.766;9.176;2023-07-29T07:42:26;97849.53;;;18.94;100.00
49611;BME280;35515;48.766;9.176;2023-07-29T07:44:53;97851.19;;;18.90;100.00
49611;BME280;35515;48.766;9.176;2023-07-29T07:47:19;97844.84;;;18.84;100.00
49611;BME280;35515;48.766;9.176;2023-07-29T07:49:46;97846.78;;;18.83;100.00
49611;BME280;35515;48.766;9.176;2023-07-29T07:52:14;97853.38;;;18.93;100.00
49611;BME280;35515;48.766;9.176;2023-07-29T07:54:41;97839.06;;;18.85;100.00
49611;BME280;35515;48.766;9.176;2023-07-29T07:57:08;97843.75;;;18.95;100.00
49611;BME280;35515;48.766;9.176;2023-07-29T07:59:35;97841.84;;;18.96;100.00
49611;BME280;35515;48.766;9.176;2023-07-29T08:02:02;97835.81;;;18.94;100.00
49611;BME280;35515;48.766;9.176;2023-07-29T08:04:28;97834.44;;;18.96;100.00
49611;BME280;35515;48.766;9.176;2023-07-29T08:06:55;97838.81;;;18.92;100.00
49611;BME280;35515;48.766;9.176;2023-07-29T08:09:21;97836.38;;;18.91;100.00
49611;BME280;35515;48.766;9.176;2023-07-29T08:11:48;97847.06;;;18.97;100.00
49611;BME280;35515;48.766;9.176;2023-07-29T08:14:16;97855.53;;;19.16;100.00
49611;BME280;35515;48.766;9.176;2023-07-29T08:16:42;97855.28;;;19.13;100.00
49611;BME280;35515;48.766;9.176;2023-07-29T08:19:09;97860.50;;;19.14;100.00
49611;BME280;35515;48.766;9.176;2023-07-29T08:21:35;97875.28;;;19.34;100.00
49611;BME280;35515;48.766;9.176;2023-07-29T08:24:02;97864.56;;;19.27;100.00
49611;BME280;35515;48.766;9.176;2023-07-29T08:26:29;97875.03;;;19.25;100.00
49611;BME280;35515;48.766;9.176;2023-07-29T08:28:55;97873.66;;;19.23;100.00
49611;BME280;35515;48.766;9.176;2023-07-29T08:31:23;97874.22;;;19.25;100.00
49611;BME280;35515;48.766;9.176;2023-07-29T08:33:50;97868.72;;;19.25;100.00
49611;BME280;35515;48.766;9.176;2023-07-29T08:36:16;97873.38;;;19.24;100.00
49611;BME280;35515;48.766;9.176;2023-07-29T08:38:43;97865.69;;;19.31;100.00
49611;BME280;35515;48.766;9.176;2023-07-29T08:41:13;97867.56;;;19.51;100.00
49611;BME280;35515;48.766;9.176;2023-07-29T08:43:44;97862.09;;;19.41;100.00
49611;BME280;35515;48.766;9.176;2023-07-29T08:46:13;97861.50;;;19.54;100.00
49611;BME280;35515;48.766;9.176;2023-07-29T08:48:43;97871.38;;;19.61;100.00
49611;BME280;35515;48.766;9.176;2023-07-29T08:51:10;97866.69;;;19.61;100.00
49611;BME280;35515;48.766;9.176;2023-07-29T08:53:38;97864.16;;;19.75;100.00
49611;BME280;35515;48.766;9.176;2023-07-29T08:56:05;97862.00;;;19.82;100.00
49611;BME280;35515;48.766;9.176;2023-07-29T08:58:32;97850.13;;;19.92;100.00
49611;BME280;35515;48.766;9.176;2023-07-29T09:00:59;97863.03;;;19.97;100.00
49611;BME280;35515;48.766;9.176;2023-07-29T09:03:26;97865.19;;;20.05;100.00
49611;BME280;35515;48.766;9.176;2023-07-29T09:05:54;97863.53;;;20.04;100.00
49611;BME280;35515;48.766;9.176;2023-07-29T09:08:21;97874.50;;;20.14;100.00
49611;BME280;35515;48.766;9.176;2023-07-29T09:10:48;97864.59;;;20.13;100.00
49611;BME280;35515;48.766;9.176;2023-07-29T09:13:15;97859.63;;;20.15;100.00
49611;BME280;35515;48.766;9.176;2023-07-29T09:15:41;97854.38;;;20.19;100.00
49611;BME280;35515;48.766;9.176;2023-07-29T09:18:13;97850.84;;;20.13;100.00
49611;BME280;35515;48.766;9.176;2023-07-29T09:20:41;97842.00;;;20.16;100.00
49611;BME280;35515;48.766;9.176;2023-07-29T09:23:10;97836.53;;;20.11;100.00
49611;BME280;35515;48.766;9.176;2023-07-29T09:25:37;97839.25;;;20.16;100.00
49611;BME280;35515;48.766;9.176;2023-07-29T09:28:08;97845.53;;;20.27;100.00
49611;BME280;35515;48.766;9.176;2023-07-29T09:30:36;97840.81;;;20.38;100.00
49611;BME280;35515;48.766;9.176;2023-07-29T09:33:02;97841.75;;;20.58;100.00
49611;BME280;35515;48.766;9.176;2023-07-29T09:35:30;97838.00;;;20.43;100.00
49611;BME280;35515;48.766;9.176;2023-07-29T09:37:58;97841.88;;;20.42;100.00
49611;BME280;35515;48.766;9.176;2023-07-29T09:40:26;97843.47;;;20.48;100.00
49611;BME280;35515;48.766;9.176;2023-07-29T09:42:54;97833.16;;;20.69;100.00
49611;BME280;35515;48.766;9.176;2023-07-29T09:45:22;97856.53;;;20.72;100.00
49611;BME280;35515;48.766;9.176;2023-07-29T09:47:49;97853.25;;;20.70;100.00
49611;BME280;35515;48.766;9.176;2023-07-29T09:50:16;97842.16;;;20.80;100.00
49611;BME280;35515;48.766;9.176;2023-07-29T09:52:43;97847.13;;;20.78;100.00
49611;BME280;35515;48.766;9.176;2023-07-29T09:55:12;97833.69;;;20.71;100.00
49611;BME280;35515;48.766;9.176;2023-07-29T09:57:40;97842.47;;;20.68;100.00
49611;BME280;35515;48.766;9.176;2023-07-29T10:00:10;97840.59;;;20.64;100.00
49611;BME280;35515;48.766;9.176;2023-07-29T10:02:38;97835.63;;;20.66;100.00
49611;BME280;35515;48.766;9.176;2023-07-29T10:05:06;97833.38;;;20.78;100.00
49611;BME280;35515;48.766;9.176;2023-07-29T10:07:33;97833.81;;;20.91;100.00
49611;BME280;35515;48.766;9.176;2023-07-29T10:10:01;97826.28;;;21.01;100.00
49611;BME280;35515;48.766;9.176;2023-07-29T10:12:28;97822.94;;;21.04;100.00
49611;BME280;35515;48.766;9.176;2023-07-29T10:14:59;97822.06;;;21.09;100.00
49611;BME280;35515;48.766;9.176;2023-07-29T10:17:26;97803.81;;;21.18;100.00
49611;BME280;35515;48.766;9.176;2023-07-29T10:19:53;97816.47;;;21.19;100.00
49611;BME280;35515;48.766;9.176;2023-07-29T10:22:25;97809.22;;;21.29;100.00
49611;BME280;35515;48.766;9.176;2023-07-29T10:24:54;97817.88;;;21.41;100.00
49611;BME280;35515;48.766;9.176;2023-07-29T10:27:24;97817.22;;;21.54;99.89
49611;BME280;35515;48.766;9.176;2023-07-29T10:29:53;97818.06;;;21.74;96.55
49611;BME280;35515;48.766;9.176;2023-07-29T10:32:25;97825.69;;;21.82;91.96
49611;BME280;35515;48.766;9.176;2023-07-29T10:34:52;97828.69;;;21.86;87.48
49611;BME280;35515;48.766;9.176;2023-07-29T10:37:19;97829.56;;;21.81;89.04
49611;BME280;35515;48.766;9.176;2023-07-29T10:39:52;97828.09;;;21.89;85.72
49611;BME280;35515;48.766;9.176;2023-07-29T10:42:19;97822.94;;;21.82;86.30
49611;BME280;35515;48.766;9.176;2023-07-29T10:44:47;97837.31;;;21.79;88.26
49611;BME280;35515;48.766;9.176;2023-07-29T10:47:15;97843.09;;;21.78;93.24
49611;BME280;35515;48.766;9.176;2023-07-29T10:49:43;97852.28;;;21.73;99.32
49611;BME280;35515;48.766;9.176;2023-07-29T10:52:13;97846.06;;;21.62;99.63
49611;BME280;35515;48.766;9.176;2023-07-29T10:54:43;97843.31;;;21.62;100.00
49611;BME280;35515;48.766;9.176;2023-07-29T10:57:13;97835.03;;;21.62;100.00
49611;BME280;35515;48.766;9.176;2023-07-29T10:59:41;97830.72;;;21.75;100.00
49611;BME280;35515;48.766;9.176;2023-07-29T11:02:17;97827.59;;;22.06;96.33
49611;BME280;35515;48.766;9.176;2023-07-29T11:04:50;97825.03;;;21.91;96.21
49611;BME280;35515;48.766;9.176;2023-07-29T11:07:21;97844.50;;;21.75;98.86
49611;BME280;35515;48.766;9.176;2023-07-29T11:10:01;97847.38;;;21.89;93.77
49611;BME280;35515;48.766;9.176;2023-07-29T11:12:38;97848.25;;;21.84;90.84
49611;BME280;35515;48.766;9.176;2023-07-29T11:15:12;97850.31;;;21.74;90.44
49611;BME280;35515;48.766;9.176;2023-07-29T11:17:40;97839.59;;;21.72;91.86
49611;BME280;35515;48.766;9.176;2023-07-29T11:20:09;97840.59;;;21.81;92.08
49611;BME280;35515;48.766;9.176;2023-07-29T11:22:37;97842.28;;;21.77;91.54
49611;BME280;35515;48.766;9.176;2023-07-29T11:25:04;97838.81;;;21.91;91.80
49611;BME280;35515;48.766;9.176;2023-07-29T11:27:31;97842.63;;;21.95;91.71
49611;BME280;35515;48.766;9.176;2023-07-29T11:29:59;97835.88;;;22.06;89.49
49611;BME280;35515;48.766;9.176;2023-07-29T11:32:26;97831.31;;;22.15;87.73
49611;BME280;35515;48.766;9.176;2023-07-29T11:34:52;97842.00;;;21.98;87.31
49611;BME280;35515;48.766;9.176;2023-07-29T11:37:20;97830.84;;;22.08;80.90
49611;BME280;35515;48.766;9.176;2023-07-29T11:39:47;97827.97;;;21.99;83.74
49611;BME280;35515;48.766;9.176;2023-07-29T11:42:14;97820.56;;;21.95;85.34
49611;BME280;35515;48.766;9.176;2023-07-29T11:44:41;97816.25;;;21.88;86.53
49611;BME280;35515;48.766;9.176;2023-07-29T11:47:09;97811.78;;;21.93;86.14
49611;BME280;35515;48.766;9.176;2023-07-29T11:49:36;97823.00;;;21.96;86.34
49611;BME280;35515;48.766;9.176;2023-07-29T11:52:06;97816.69;;;21.96;85.63
49611;BME280;35515;48.766;9.176;2023-07-29T11:54:34;97822.88;;;22.07;86.42
49611;BME280;35515;48.766;9.176;2023-07-29T11:57:03;97820.78;;;22.17;84.67
49611;BME280;35515;48.766;9.176;2023-07-29T11:59:31;97817.28;;;22.31;85.86
49611;BME280;35515;48.766;9.176;2023-07-29T12:02:00;97825.22;;;22.37;83.74
49611;BME280;35515;48.766;9.176;2023-07-29T12:04:27;97816.72;;;22.53;81.95
49611;BME280;35515;48.766;9.176;2023-07-29T12:06:53;97810.63;;;22.37;83.47
49611;BME280;35515;48.766;9.176;2023-07-29T12:09:20;97815.16;;;22.66;81.23
49611;BME280;35515;48.766;9.176;2023-07-29T12:11:49;97802.75;;;22.63;80.62
49611;BME280;35515;48.766;9.176;2023-07-29T12:14:16;97790.88;;;22.63;80.92
49611;BME280;35515;48.766;9.176;2023-07-29T12:16:43;97795.06;;;22.60;80.61
49611;BME280;35515;48.766;9.176;2023-07-29T12:19:12;97798.66;;;22.61;80.14
49611;BME280;35515;48.766;9.176;2023-07-29T12:21:40;97799.69;;;22.65;80.29
49611;BME280;35515;48.766;9.176;2023-07-29T12:24:07;97801.91;;;22.63;80.10
49611;BME280;35515;48.766;9.176;2023-07-29T12:26:35;97801.91;;;22.63;78.96
49611;BME280;35515;48.766;9.176;2023-07-29T12:29:12;97820.91;;;22.83;75.25
49611;BME280;35515;48.766;9.176;2023-07-29T12:31:39;97803.88;;;22.95;73.19
49611;BME280;35515;48.766;9.176;2023-07-29T12:34:05;97799.34;;;22.85;73.44
49611;BME280;35515;48.766;9.176;2023-07-29T12:36:42;97799.16;;;22.96;74.89
49611;BME280;35515;48.766;9.176;2023-07-29T12:39:16;97791.38;;;22.98;75.03
49611;BME280;35515;48.766;9.176;2023-07-29T12:41:42;97801.41;;;22.94;74.93
49611;BME280;35515;48.766;9.176;2023-07-29T12:44:09;97789.19;;;23.14;69.07
49611;BME280;35515;48.766;9.176;2023-07-29T12:46:37;97789.41;;;23.17;68.08
49611;BME280;35515;48.766;9.176;2023-07-29T12:49:03;97786.03;;;23.20;69.82
49611;BME280;35515;48.766;9.176;2023-07-29T12:51:30;97793.09;;;23.27;67.62
49611;BME280;35515;48.766;9.176;2023-07-29T12:53:56;97786.94;;;23.30;65.95